sensor_id;sensor_type;location;lat;lon;timestamp;temperature;humidity
51613;DHT22;37694;51.748;14.326;2023-08-06T00:00:07;21.60;47.30
51613;DHT22;37694;51.748;14.326;2023-08-06T00:02:33;21.50;47.30
51613;DHT22;37694;51.748;14.326;2023-08-06T00:04:59;21.50;47.20
51613;DHT22;37694;51.748;14.326;2023-08-06T00:07:25;21.50;47.20
51613;DHT22;37694;51.748;14.326;2023-08-06T00:09:50;21.50;48.40
51613;DHT22;37694;51.748;14.326;2023-08-06T00:12:16;21.60;49.20
51613;DHT22;37694;51.748;14.326;2023-08-06T00:14:42;21.60;49.80
51613;DHT22;37694;51.748;14.326;2023-08-06T00:17:08;21.60;50.30
51613;DHT22;37694;51.748;14.326;2023-08-06T00:19:33;21.60;51.10
51613;DHT22;37694;51.748;14.326;2023-08-06T00:21:59;21.70;51.50
51613;DHT22;37694;51.748;14.326;2023-08-06T00:24:25;21.70;52.00
51613;DHT22;37694;51.748;14.326;2023-08-06T00:26:50;21.70;52.50
51613;DHT22;37694;51.748;14.326;2023-08-06T00:29:16;21.70;52.80
51613;DHT22;37694;51.748;14.326;2023-08-06T00:31:42;21.70;53.20
51613;DHT22;37694;51.748;14.326;2023-08-06T00:34:07;21.70;53.60
51613;DHT22;37694;51.748;14.326;2023-08-06T00:36:33;21.70;53.80
51613;DHT22;37694;51.748;14.326;2023-08-06T00:38:59;21.70;53.90
51613;DHT22;37694;51.748;14.326;2023-08-06T00:41:24;21.70;54.30
51613;DHT22;37694;51.748;14.326;2023-08-06T00:43:50;21.70;54.60
51613;DHT22;37694;51.748;14.326;2023-08-06T00:46:16;21.70;54.70
51613;DHT22;37694;51.748;14.326;2023-08-06T00:48:42;21.70;54.70
51613;DHT22;37694;51.748;14.326;2023-08-06T00:51:10;21.90;55.30
51613;DHT22;37694;51.748;14.326;2023-08-06T00:53:37;22.10;55.20
51613;DHT22;37694;51.748;14.326;2023-08-06T00:56:03;22.30;55.20
51613;DHT22;37694;51.748;14.326;2023-08-06T00:58:29;22.40;54.90
51613;DHT22;37694;51.748;14.326;2023-08-06T01:00:55;22.50;54.80
51613;DHT22;37694;51.748;14.326;2023-08-06T01:03:21;22.60;54.70
51613;DHT22;37694;51.748;14.326;2023-08-06T01:05:47;22.70;54.90
51613;DHT22;37694;51.748;14.326;2023-08-06T01:11:07;22.80;54.80
51613;DHT22;37694;51.748;14.326;2023-08-06T01:13:48;22.90;54.60
51613;DHT22;37694;51.748;14.326;2023-08-06T01:16:18;22.90;54.90
51613;DHT22;37694;51.748;14.326;2023-08-06T01:18:44;23.00;54.50
51613;DHT22;37694;51.748;14.326;2023-08-06T01:21:15;23.00;54.00
51613;DHT22;37694;51.748;14.326;2023-08-06T01:23:42;23.10;53.70
51613;DHT22;37694;51.748;14.326;2023-08-06T01:28:41;23.20;53.30
51613;DHT22;37694;51.748;14.326;2023-08-06T01:31:13;23.30;53.20
51613;DHT22;37694;51.748;14.326;2023-08-06T01:33:44;23.30;53.10
51613;DHT22;37694;51.748;14.326;2023-08-06T01:36:10;23.40;53.00
51613;DHT22;37694;51.748;14.326;2023-08-06T01:38:36;23.40;52.90
51613;DHT22;37694;51.748;14.326;2023-08-06T01:41:02;23.40;52.80
51613;DHT22;37694;51.748;14.326;2023-08-06T01:43:27;23.40;52.80
51613;DHT22;37694;51.748;14.326;2023-08-06T01:45:53;23.50;52.80
51613;DHT22;37694;51.748;14.326;2023-08-06T01:48:19;23.60;52.90
51613;DHT22;37694;51.748;14.326;2023-08-06T01:50:44;23.60;52.70
51613;DHT22;37694;51.748;14.326;2023-08-06T01:53:10;23.60;52.60
51613;DHT22;37694;51.748;14.326;2023-08-06T01:55:36;23.60;52.60
51613;DHT22;37694;51.748;14.326;2023-08-06T01:58:02;23.60;52.50
51613;DHT22;37694;51.748;14.326;2023-08-06T02:00:27;23.70;52.60
51613;DHT22;37694;51.748;14.326;2023-08-06T02:02:54;23.70;52.50
51613;DHT22;37694;51.748;14.326;2023-08-06T02:05:20;23.70;52.40
51613;DHT22;37694;51.748;14.326;2023-08-06T02:07:45;23.70;52.50
51613;DHT22;37694;51.748;14.326;2023-08-06T02:10:11;23.70;52.50
51613;DHT22;37694;51.748;14.326;2023-08-06T02:12:37;23.80;52.50
51613;DHT22;37694;51.748;14.326;2023-08-06T02:15:03;23.80;52.50
51613;DHT22;37694;51.748;14.326;2023-08-06T02:17:29;23.80;52.40
51613;DHT22;37694;51.748;14.326;2023-08-06T02:19:54;23.90;52.40
51613;DHT22;37694;51.748;14.326;2023-08-06T02:22:20;23.90;52.40
51613;DHT22;37694;51.748;14.326;2023-08-06T02:24:46;23.90;52.40
51613;DHT22;37694;51.748;14.326;2023-08-06T02:27:11;23.90;52.40
51613;DHT22;37694;51.748;14.326;2023-08-06T02:29:39;23.90;52.40
51613;DHT22;37694;51.748;14.326;2023-08-06T02:32:05;23.90;52.40
51613;DHT22;37694;51.748;14.326;2023-08-06T02:34:31;23.90;52.40
51613;DHT22;37694;51.748;14.326;2023-08-06T02:36:57;23.90;52.40
51613;DHT22;37694;51.748;14.326;2023-08-06T02:39:22;24.00;52.50
51613;DHT22;37694;51.748;14.326;2023-08-06T02:41:48;24.00;52.50
51613;DHT22;37694;51.748;14.326;2023-08-06T02:44:14;24.00;52.50
51613;DHT22;37694;51.748;14.326;2023-08-06T02:46:39;24.00;52.50
51613;DHT22;37694;51.748;14.326;2023-08-06T02:49:06;24.00;52.50
51613;DHT22;37694;51.748;14.326;2023-08-06T02:51:32;24.00;52.50
51613;DHT22;37694;51.748;14.326;2023-08-06T02:53:57;24.00;52.40
51613;DHT22;37694;51.748;14.326;2023-08-06T02:56:23;24.00;52.40
51613;DHT22;37694;51.748;14.326;2023-08-06T02:58:48;24.10;52.50
51613;DHT22;37694;51.748;14.326;2023-08-06T03:01:14;24.10;52.50
51613;DHT22;37694;51.748;14.326;2023-08-06T03:03:40;24.10;52.60
51613;DHT22;37694;51.748;14.326;2023-08-06T03:06:05;24.10;52.50
51613;DHT22;37694;51.748;14.326;2023-08-06T03:08:31;24.10;52.50
51613;DHT22;37694;51.748;14.326;2023-08-06T03:10:57;24.10;52.50
51613;DHT22;37694;51.748;14.326;2023-08-06T03:13:23;24.10;52.50
51613;DHT22;37694;51.748;14.326;2023-08-06T03:15:56;24.10;52.60
51613;DHT22;37694;51.748;14.326;2023-08-06T03:18:22;24.10;52.70
51613;DHT22;37694;51.748;14.326;2023-08-06T03:20:48;24.10;52.60
51613;DHT22;37694;51.748;14.326;2023-08-06T03:23:14;24.10;52.60
51613;DHT22;37694;51.748;14.326;2023-08-06T03:25:40;24.10;52.70
51613;DHT22;37694;51.748;14.326;2023-08-06T03:28:06;24.20;52.70
51613;DHT22;37694;51.748;14.326;2023-08-06T03:30:31;24.20;52.60
51613;DHT22;37694;51.748;14.326;2023-08-06T03:32:57;24.20;52.60
51613;DHT22;37694;51.748;14.326;2023-08-06T03:35:23;24.20;52.60
51613;DHT22;37694;51.748;14.326;2023-08-06T03:37:48;24.20;52.70
51613;DHT22;37694;51.748;14.326;2023-08-06T03:40:15;24.20;52.60
51613;DHT22;37694;51.748;14.326;2023-08-06T03:42:41;24.20;52.70
51613;DHT22;37694;51.748;14.326;2023-08-06T03:45:07;24.20;52.60
51613;DHT22;37694;51.748;14.326;2023-08-06T03:47:33;24.30;52.70
51613;DHT22;37694;51.748;14.326;2023-08-06T03:49:59;24.30;52.80
51613;DHT22;37694;51.748;14.326;2023-08-06T03:52:24;24.30;52.80
51613;DHT22;37694;51.748;14.326;2023-08-06T03:54:50;24.30;52.80
51613;DHT22;37694;51.748;14.326;2023-08-06T03:57:15;24.30;52.70
51613;DHT22;37694;51.748;14.326;2023-08-06T03:59:41;24.30;52.80
51613;DHT22;37694;51.748;14.326;2023-08-06T04:02:07;24.30;52.90
51613;DHT22;37694;51.748;14.326;2023-08-06T04:04:32;24.30;52.80
51613;DHT22;37694;51.748;14.326;2023-08-06T04:06:58;24.30;52.70
51613;DHT22;37694;51.748;14.326;2023-08-06T04:09:24;24.30;52.70
51613;DHT22;37694;51.748;14.326;2023-08-06T04:11:49;24.30;52.70
51613;DHT22;37694;51.748;14.326;2023-08-06T04:14:15;24.30;52.80
51613;DHT22;37694;51.748;14.326;2023-08-06T04:16:41;24.30;52.80
51613;DHT22;37694;51.748;14.326;2023-08-06T04:19:06;24.30;52.80
51613;DHT22;37694;51.748;14.326;2023-08-06T04:21:32;24.40;52.80
51613;DHT22;37694;51.748;14.326;2023-08-06T04:23:58;24.30;52.80
51613;DHT22;37694;51.748;14.326;2023-08-06T04:26:23;24.30;52.90
51613;DHT22;37694;51.748;14.326;2023-08-06T04:28:49;24.30;52.80
51613;DHT22;37694;51.748;14.326;2023-08-06T04:31:15;24.30;52.80
51613;DHT22;37694;51.748;14.326;2023-08-06T04:33:41;24.30;52.80
51613;DHT22;37694;51.748;14.326;2023-08-06T04:36:06;24.40;52.80
51613;DHT22;37694;51.748;14.326;2023-08-06T04:38:32;24.40;52.90
51613;DHT22;37694;51.748;14.326;2023-08-06T04:40:58;24.40;53.00
51613;DHT22;37694;51.748;14.326;2023-08-06T04:43:24;24.40;53.00
51613;DHT22;37694;51.748;14.326;2023-08-06T04:45:51;24.40;53.00
51613;DHT22;37694;51.748;14.326;2023-08-06T04:48:18;24.40;53.00
51613;DHT22;37694;51.748;14.326;2023-08-06T04:50:49;24.40;53.10
51613;DHT22;37694;51.748;14.326;2023-08-06T04:53:15;24.40;53.00
51613;DHT22;37694;51.748;14.326;2023-08-06T04:55:41;24.50;53.10
51613;DHT22;37694;51.748;14.326;2023-08-06T04:58:08;24.40;53.10
51613;DHT22;37694;51.748;14.326;2023-08-06T05:00:34;24.40;53.00
51613;DHT22;37694;51.748;14.326;2023-08-06T05:03:00;24.40;53.00
51613;DHT22;37694;51.748;14.326;2023-08-06T05:05:27;24.50;53.10
51613;DHT22;37694;51.748;14.326;2023-08-06T05:07:55;24.40;53.00
51613;DHT22;37694;51.748;14.326;2023-08-06T05:10:24;24.50;53.10
51613;DHT22;37694;51.748;14.326;2023-08-06T05:12:49;24.50;53.10
51613;DHT22;37694;51.748;14.326;2023-08-06T05:15:15;24.50;53.10
51613;DHT22;37694;51.748;14.326;2023-08-06T05:17:41;24.50;53.10
51613;DHT22;37694;51.748;14.326;2023-08-06T05:20:07;24.50;53.20
51613;DHT22;37694;51.748;14.326;2023-08-06T05:22:32;24.50;53.70
51613;DHT22;37694;51.748;14.326;2023-08-06T05:24:58;24.50;53.10
51613;DHT22;37694;51.748;14.326;2023-08-06T05:27:24;24.50;53.20
51613;DHT22;37694;51.748;14.326;2023-08-06T05:29:49;24.50;53.10
51613;DHT22;37694;51.748;14.326;2023-08-06T05:32:15;24.50;53.10
51613;DHT22;37694;51.748;14.326;2023-08-06T05:34:40;24.50;53.20
51613;DHT22;37694;51.748;14.326;2023-08-06T05:37:07;24.50;53.20
51613;DHT22;37694;51.748;14.326;2023-08-06T05:39:32;24.50;53.40
51613;DHT22;37694;51.748;14.326;2023-08-06T05:41:58;24.50;53.40
51613;DHT22;37694;51.748;14.326;2023-08-06T05:44:24;24.50;53.60
51613;DHT22;37694;51.748;14.326;2023-08-06T05:46:50;24.50;53.50
51613;DHT22;37694;51.748;14.326;2023-08-06T05:49:15;24.60;53.60
51613;DHT22;37694;51.748;14.326;2023-08-06T05:51:41;24.60;53.60
51613;DHT22;37694;51.748;14.326;2023-08-06T05:54:07;24.60;53.60
51613;DHT22;37694;51.748;14.326;2023-08-06T05:56:33;24.60;53.70
51613;DHT22;37694;51.748;14.326;2023-08-06T05:58:59;24.60;53.60
51613;DHT22;37694;51.748;14.326;2023-08-06T06:01:24;24.60;53.60
51613;DHT22;37694;51.748;14.326;2023-08-06T06:03:50;24.60;53.60
51613;DHT22;37694;51.748;14.326;2023-08-06T06:06:16;24.60;53.60
51613;DHT22;37694;51.748;14.326;2023-08-06T06:08:42;24.60;53.60
51613;DHT22;37694;51.748;14.326;2023-08-06T06:11:08;24.60;53.50
51613;DHT22;37694;51.748;14.326;2023-08-06T06:13:34;24.60;53.50
51613;DHT22;37694;51.748;14.326;2023-08-06T06:15:59;24.60;53.60
51613;DHT22;37694;51.748;14.326;2023-08-06T06:18:25;24.60;53.50
51613;DHT22;37694;51.748;14.326;2023-08-06T06:20:50;24.60;53.50
51613;DHT22;37694;51.748;14.326;2023-08-06T06:23:16;24.60;53.60
51613;DHT22;37694;51.748;14.326;2023-08-06T06:25:43;24.60;53.60
51613;DHT22;37694;51.748;14.326;2023-08-06T06:28:09;24.60;53.60
51613;DHT22;37694;51.748;14.326;2023-08-06T06:30:34;24.70;53.60
51613;DHT22;37694;51.748;14.326;2023-08-06T06:33:00;24.70;53.60
51613;DHT22;37694;51.748;14.326;2023-08-06T06:35:26;24.70;53.60
51613;DHT22;37694;51.748;14.326;2023-08-06T06:37:51;24.70;53.60
51613;DHT22;37694;51.748;14.326;2023-08-06T06:40:17;24.70;53.60
51613;DHT22;37694;51.748;14.326;2023-08-06T06:42:43;24.70;53.60
51613;DHT22;37694;51.748;14.326;2023-08-06T06:45:09;24.70;53.60
51613;DHT22;37694;51.748;14.326;2023-08-06T06:47:35;24.80;53.60
51613;DHT22;37694;51.748;14.326;2023-08-06T06:50:00;24.70;53.60
51613;DHT22;37694;51.748;14.326;2023-08-06T06:52:26;24.80;53.70
51613;DHT22;37694;51.748;14.326;2023-08-06T06:54:52;24.70;53.60
51613;DHT22;37694;51.748;14.326;2023-08-06T06:57:17;24.70;53.70
51613;DHT22;37694;51.748;14.326;2023-08-06T06:59:43;24.70;54.00
51613;DHT22;37694;51.748;14.326;2023-08-06T07:02:08;24.70;54.10
51613;DHT22;37694;51.748;14.326;2023-08-06T07:04:34;24.70;54.60
51613;DHT22;37694;51.748;14.326;2023-08-06T07:07:00;24.80;54.90
51613;DHT22;37694;51.748;14.326;2023-08-06T07:09:25;24.80;54.60
51613;DHT22;37694;51.748;14.326;2023-08-06T07:11:52;24.80;54.50
51613;DHT22;37694;51.748;14.326;2023-08-06T07:14:17;24.90;54.70
51613;DHT22;37694;51.748;14.326;2023-08-06T07:16:43;24.90;55.00
51613;DHT22;37694;51.748;14.326;2023-08-06T07:19:09;24.90;55.10
51613;DHT22;37694;51.748;14.326;2023-08-06T07:21:34;24.90;54.80
51613;DHT22;37694;51.748;14.326;2023-08-06T07:24:00;24.90;54.70
51613;DHT22;37694;51.748;14.326;2023-08-06T07:26:27;24.90;54.80
51613;DHT22;37694;51.748;14.326;2023-08-06T07:28:53;24.90;54.90
51613;DHT22;37694;51.748;14.326;2023-08-06T07:31:18;24.90;55.00
51613;DHT22;37694;51.748;14.326;2023-08-06T07:33:44;25.00;54.70
51613;DHT22;37694;51.748;14.326;2023-08-06T07:36:13;25.00;54.60
51613;DHT22;37694;51.748;14.326;2023-08-06T07:38:40;25.00;54.50
51613;DHT22;37694;51.748;14.326;2023-08-06T07:41:05;25.00;54.50
51613;DHT22;37694;51.748;14.326;2023-08-06T07:43:31;25.00;54.50
51613;DHT22;37694;51.748;14.326;2023-08-06T07:46:00;25.00;54.60
51613;DHT22;37694;51.748;14.326;2023-08-06T07:48:26;25.00;54.60
51613;DHT22;37694;51.748;14.326;2023-08-06T07:50:55;25.10;54.70
51613;DHT22;37694;51.748;14.326;2023-08-06T07:53:22;25.10;54.70
51613;DHT22;37694;51.748;14.326;2023-08-06T07:55:51;25.10;54.70
51613;DHT22;37694;51.748;14.326;2023-08-06T07:58:18;25.10;54.60
51613;DHT22;37694;51.748;14.326;2023-08-06T08:00:44;25.10;54.60
51613;DHT22;37694;51.748;14.326;2023-08-06T08:03:14;25.20;54.70
51613;DHT22;37694;51.748;14.326;2023-08-06T08:05:41;25.20;54.60
51613;DHT22;37694;51.748;14.326;2023-08-06T08:08:07;25.20;54.50
51613;DHT22;37694;51.748;14.326;2023-08-06T08:10:33;25.20;54.70
51613;DHT22;37694;51.748;14.326;2023-08-06T08:13:03;25.20;54.50
51613;DHT22;37694;51.748;14.326;2023-08-06T08:15:31;25.20;54.40
51613;DHT22;37694;51.748;14.326;2023-08-06T08:17:58;25.20;54.40
51613;DHT22;37694;51.748;14.326;2023-08-06T08:20:23;25.20;54.40
51613;DHT22;37694;51.748;14.326;2023-08-06T08:22:49;25.20;54.40
51613;DHT22;37694;51.748;14.326;2023-08-06T08:25:16;25.20;54.40
51613;DHT22;37694;51.748;14.326;2023-08-06T08:27:42;25.30;54.30
51613;DHT22;37694;51.748;14.326;2023-08-06T08:30:08;25.30;54.20
51613;DHT22;37694;51.748;14.326;2023-08-06T08:32:33;25.30;54.10
51613;DHT22;37694;51.748;14.326;2023-08-06T08:34:59;25.30;54.00
51613;DHT22;37694;51.748;14.326;2023-08-06T08:37:25;25.30;54.20
51613;DHT22;37694;51.748;14.326;2023-08-06T08:39:50;25.30;54.20
51613;DHT22;37694;51.748;14.326;2023-08-06T08:42:17;25.30;54.00
51613;DHT22;37694;51.748;14.326;2023-08-06T08:44:45;25.30;54.30
51613;DHT22;37694;51.748;14.326;2023-08-06T08:47:11;25.30;54.80
51613;DHT22;37694;51.748;14.326;2023-08-06T08:49:37;25.30;53.80
51613;DHT22;37694;51.748;14.326;2023-08-06T08:52:04;25.30;54.10
51613;DHT22;37694;51.748;14.326;2023-08-06T08:54:38;25.30;54.30
51613;DHT22;37694;51.748;14.326;2023-08-06T08:57:05;25.30;54.50
51613;DHT22;37694;51.748;14.326;2023-08-06T08:59:33;25.40;54.50
51613;DHT22;37694;51.748;14.326;2023-08-06T09:02:00;25.30;54.40
51613;DHT22;37694;51.748;14.326;2023-08-06T09:04:28;25.30;54.40
51613;DHT22;37694;51.748;14.326;2023-08-06T09:06:58;25.40;54.50
51613;DHT22;37694;51.748;14.326;2023-08-06T09:09:32;25.40;54.40
51613;DHT22;37694;51.748;14.326;2023-08-06T09:12:01;25.40;54.30
51613;DHT22;37694;51.748;14.326;2023-08-06T09:14:28;25.40;54.60
51613;DHT22;37694;51.748;14.326;2023-08-06T09:16:54;25.40;54.60
51613;DHT22;37694;51.748;14.326;2023-08-06T09:19:20;25.40;54.70
51613;DHT22;37694;51.748;14.326;2023-08-06T09:21:46;25.50;54.70
51613;DHT22;37694;51.748;14.326;2023-08-06T09:24:14;25.40;54.50
51613;DHT22;37694;51.748;14.326;2023-08-06T09:26:43;25.40;54.40
51613;DHT22;37694;51.748;14.326;2023-08-06T09:29:09;25.50;54.30
51613;DHT22;37694;51.748;14.326;2023-08-06T09:31:42;25.50;54.10
51613;DHT22;37694;51.748;14.326;2023-08-06T09:34:19;25.50;54.30
51613;DHT22;37694;51.748;14.326;2023-08-06T09:39:17;25.50;54.40
51613;DHT22;37694;51.748;14.326;2023-08-06T09:41:44;25.50;54.20
51613;DHT22;37694;51.748;14.326;2023-08-06T09:44:19;25.50;54.60
51613;DHT22;37694;51.748;14.326;2023-08-06T09:49:18;25.50;54.90
51613;DHT22;37694;51.748;14.326;2023-08-06T09:51:45;25.50;54.70
51613;DHT22;37694;51.748;14.326;2023-08-06T09:54:15;25.50;55.10
51613;DHT22;37694;51.748;14.326;2023-08-06T09:56:42;25.50;55.10
51613;DHT22;37694;51.748;14.326;2023-08-06T09:59:08;25.50;55.50
51613;DHT22;37694;51.748;14.326;2023-08-06T10:01:35;25.50;56.80
51613;DHT22;37694;51.748;14.326;2023-08-06T10:04:03;25.60;57.00
51613;DHT22;37694;51.748;14.326;2023-08-06T10:06:29;25.50;58.00
51613;DHT22;37694;51.748;14.326;2023-08-06T10:08:55;25.50;57.00
51613;DHT22;37694;51.748;14.326;2023-08-06T10:11:24;25.50;57.20
51613;DHT22;37694;51.748;14.326;2023-08-06T10:13:57;25.30;57.80
51613;DHT22;37694;51.748;14.326;2023-08-06T10:16:23;25.20;58.30
51613;DHT22;37694;51.748;14.326;2023-08-06T10:18:50;25.20;58.50
51613;DHT22;37694;51.748;14.326;2023-08-06T10:21:17;25.20;58.80
51613;DHT22;37694;51.748;14.326;2023-08-06T10:23:43;25.20;58.80
51613;DHT22;37694;51.748;14.326;2023-08-06T10:26:09;25.20;58.70
51613;DHT22;37694;51.748;14.326;2023-08-06T10:28:38;25.20;58.50
51613;DHT22;37694;51.748;14.326;2023-08-06T10:31:04;25.20;58.50
51613;DHT22;37694;51.748;14.326;2023-08-06T10:33:47;25.20;57.60
51613;DHT22;37694;51.748;14.326;2023-08-06T10:36:14;25.30;57.70
51613;DHT22;37694;51.748;14.326;2023-08-06T10:38:50;25.30;57.70
51613;DHT22;37694;51.748;14.326;2023-08-06T10:41:36;25.20;57.70
51613;DHT22;37694;51.748;14.326;2023-08-06T10:44:09;25.20;57.10
51613;DHT22;37694;51.748;14.326;2023-08-06T10:46:35;25.20;56.70
51613;DHT22;37694;51.748;14.326;2023-08-06T10:49:01;25.20;56.70
51613;DHT22;37694;51.748;14.326;2023-08-06T10:51:27;25.20;56.30
51613;DHT22;37694;51.748;14.326;2023-08-06T10:53:53;25.20;57.00
51613;DHT22;37694;51.748;14.326;2023-08-06T10:56:21;25.20;57.40
51613;DHT22;37694;51.748;14.326;2023-08-06T10:58:54;25.20;57.50
51613;DHT22;37694;51.748;14.326;2023-08-06T11:01:20;25.20;57.60
51613;DHT22;37694;51.748;14.326;2023-08-06T11:03:47;25.20;57.60
51613;DHT22;37694;51.748;14.326;2023-08-06T11:06:21;25.10;57.60
51613;DHT22;37694;51.748;14.326;2023-08-06T11:08:50;25.20;57.30
51613;DHT22;37694;51.748;14.326;2023-08-06T11:11:17;25.20;57.50
51613;DHT22;37694;51.748;14.326;2023-08-06T11:13:45;25.20;57.50
51613;DHT22;37694;51.748;14.326;2023-08-06T11:16:15;25.10;57.50
51613;DHT22;37694;51.748;14.326;2023-08-06T11:18:42;25.10;57.40
51613;DHT22;37694;51.748;14.326;2023-08-06T11:21:08;25.10;56.60
51613;DHT22;37694;51.748;14.326;2023-08-06T11:23:35;25.10;57.00
51613;DHT22;37694;51.748;14.326;2023-08-06T11:26:01;25.10;57.00
51613;DHT22;37694;51.748;14.326;2023-08-06T11:28:27;25.10;57.00
51613;DHT22;37694;51.748;14.326;2023-08-06T11:30:53;25.10;57.00
51613;DHT22;37694;51.748;14.326;2023-08-06T11:33:24;25.00;57.30
51613;DHT22;37694;51.748;14.326;2023-08-06T11:35:57;25.00;57.20
51613;DHT22;37694;51.748;14.326;2023-08-06T11:38:30;25.00;57.00
51613;DHT22;37694;51.748;14.326;2023-08-06T11:40:56;25.00;57.50
51613;DHT22;37694;51.748;14.326;2023-08-06T11:43:22;24.90;57.10
51613;DHT22;37694;51.748;14.326;2023-08-06T11:45:51;24.90;57.20
51613;DHT22;37694;51.748;14.326;2023-08-06T11:48:19;24.90;57.20
51613;DHT22;37694;51.748;14.326;2023-08-06T11:50:45;24.90;57.20
51613;DHT22;37694;51.748;14.326;2023-08-06T11:53:13;24.90;57.30
51613;DHT22;37694;51.748;14.326;2023-08-06T11:55:42;24.90;57.30
51613;DHT22;37694;51.748;14.326;2023-08-06T11:58:09;24.90;57.10
51613;DHT22;37694;51.748;14.326;2023-08-06T12:00:37;24.90;56.90
51613;DHT22;37694;51.748;14.326;2023-08-06T12:03:05;24.90;57.00
51613;DHT22;37694;51.748;14.326;2023-08-06T12:05:31;24.90;57.00
51613;DHT22;37694;51.748;14.326;2023-08-06T12:08:00;24.90;56.90
51613;DHT22;37694;51.748;14.326;2023-08-06T12:10:27;24.90;56.90
51613;DHT22;37694;51.748;14.326;2023-08-06T12:12:54;24.90;56.60
51613;DHT22;37694;51.748;14.326;2023-08-06T12:15:20;24.90;56.60
51613;DHT22;37694;51.748;14.326;2023-08-06T12:17:46;24.90;56.30
51613;DHT22;37694;51.748;14.326;2023-08-06T12:20:12;24.90;56.40
51613;DHT22;37694;51.748;14.326;2023-08-06T12:22:38;24.90;56.30
51613;DHT22;37694;51.748;14.326;2023-08-06T12:25:11;24.90;56.40
51613;DHT22;37694;51.748;14.326;2023-08-06T12:27:41;25.00;56.30
51613;DHT22;37694;51.748;14.326;2023-08-06T12:30:08;24.90;56.40
51613;DHT22;37694;51.748;14.326;2023-08-06T12:32:34;24.90;56.60
51613;DHT22;37694;51.748;14.326;2023-08-06T12:35:00;24.90;56.60
51613;DHT22;37694;51.748;14.326;2023-08-06T12:37:27;24.90;56.60
51613;DHT22;37694;51.748;14.326;2023-08-06T12:39:53;24.90;56.60
51613;DHT22;37694;51.748;14.326;2023-08-06T12:42:18;24.90;57.40
51613;DHT22;37694;51.748;14.326;2023-08-06T12:44:44;24.90;56.80
51613;DHT22;37694;51.748;14.326;2023-08-06T12:47:10;24.80;56.50
51613;DHT22;37694;51.748;14.326;2023-08-06T12:49:36;24.80;56.70
51613;DHT22;37694;51.748;14.326;2023-08-06T12:52:02;24.80;56.70
51613;DHT22;37694;51.748;14.326;2023-08-06T12:54:30;24.80;56.90
51613;DHT22;37694;51.748;14.326;2023-08-06T12:57:01;24.80;57.10
51613;DHT22;37694;51.748;14.326;2023-08-06T12:59:27;24.80;57.00
51613;DHT22;37694;51.748;14.326;2023-08-06T13:01:53;24.80;57.10
51613;DHT22;37694;51.748;14.326;2023-08-06T13:04:18;24.80;57.20
51613;DHT22;37694;51.748;14.326;2023-08-06T13:06:44;24.90;57.10
51613;DHT22;37694;51.748;14.326;2023-08-06T13:09:10;24.90;57.30
51613;DHT22;37694;51.748;14.326;2023-08-06T13:11:36;24.90;57.40
51613;DHT22;37694;51.748;14.326;2023-08-06T13:14:10;24.80;57.30
51613;DHT22;37694;51.748;14.326;2023-08-06T13:16:38;24.90;57.40
51613;DHT22;37694;51.748;14.326;2023-08-06T13:19:05;24.80;57.30
51613;DHT22;37694;51.748;14.326;2023-08-06T13:21:33;24.80;57.40
51613;DHT22;37694;51.748;14.326;2023-08-06T13:24:03;24.80;57.30
51613;DHT22;37694;51.748;14.326;2023-08-06T13:26:31;24.80;57.50
51613;DHT22;37694;51.748;14.326;2023-08-06T13:28:58;24.80;57.60
51613;DHT22;37694;51.748;14.326;2023-08-06T13:31:24;24.80;57.60
51613;DHT22;37694;51.748;14.326;2023-08-06T13:33:50;24.80;57.60
51613;DHT22;37694;51.748;14.326;2023-08-06T13:36:16;24.80;57.70
51613;DHT22;37694;51.748;14.326;2023-08-06T13:38:42;24.80;57.70
51613;DHT22;37694;51.748;14.326;2023-08-06T13:41:08;24.80;57.80
51613;DHT22;37694;51.748;14.326;2023-08-06T13:43:33;24.80;57.80
51613;DHT22;37694;51.748;14.326;2023-08-06T13:45:59;24.80;57.80
51613;DHT22;37694;51.748;14.326;2023-08-06T13:48:25;24.80;57.90
51613;DHT22;37694;51.748;14.326;2023-08-06T13:50:50;24.80;57.90
51613;DHT22;37694;51.748;14.326;2023-08-06T13:53:16;24.70;57.90
51613;DHT22;37694;51.748;14.326;2023-08-06T13:55:42;24.70;58.00
51613;DHT22;37694;51.748;14.326;2023-08-06T13:58:07;24.70;58.10
51613;DHT22;37694;51.748;14.326;2023-08-06T14:00:36;24.70;58.10
51613;DHT22;37694;51.748;14.326;2023-08-06T14:03:02;24.70;58.00
51613;DHT22;37694;51.748;14.326;2023-08-06T14:05:27;24.70;58.00
51613;DHT22;37694;51.748;14.326;2023-08-06T14:07:53;24.80;57.80
51613;DHT22;37694;51.748;14.326;2023-08-06T14:10:19;24.90;57.80
51613;DHT22;37694;51.748;14.326;2023-08-06T14:12:44;24.90;57.50
51613;DHT22;37694;51.748;14.326;2023-08-06T14:15:11;25.00;57.20
51613;DHT22;37694;51.748;14.326;2023-08-06T14:17:36;25.00;56.70
51613;DHT22;37694;51.748;14.326;2023-08-06T14:20:03;25.00;56.60
51613;DHT22;37694;51.748;14.326;2023-08-06T14:22:30;25.10;56.50
51613;DHT22;37694;51.748;14.326;2023-08-06T14:24:59;25.10;56.30
51613;DHT22;37694;51.748;14.326;2023-08-06T14:27:25;25.10;56.40
51613;DHT22;37694;51.748;14.326;2023-08-06T14:29:51;25.20;56.30
51613;DHT22;37694;51.748;14.326;2023-08-06T14:32:16;25.20;56.20
51613;DHT22;37694;51.748;14.326;2023-08-06T14:34:44;25.20;56.00
51613;DHT22;37694;51.748;14.326;2023-08-06T14:37:10;25.20;55.90
51613;DHT22;37694;51.748;14.326;2023-08-06T14:39:36;25.20;55.80
51613;DHT22;37694;51.748;14.326;2023-08-06T14:42:02;25.30;55.60
51613;DHT22;37694;51.748;14.326;2023-08-06T14:44:28;25.20;55.60
51613;DHT22;37694;51.748;14.326;2023-08-06T14:46:54;25.30;55.60
51613;DHT22;37694;51.748;14.326;2023-08-06T14:49:19;25.30;55.60
51613;DHT22;37694;51.748;14.326;2023-08-06T14:51:45;25.30;55.60
51613;DHT22;37694;51.748;14.326;2023-08-06T14:54:11;25.30;55.40
51613;DHT22;37694;51.748;14.326;2023-08-06T14:56:37;25.30;55.40
51613;DHT22;37694;51.748;14.326;2023-08-06T14:59:02;25.30;55.40
51613;DHT22;37694;51.748;14.326;2023-08-06T15:01:28;25.30;55.30
51613;DHT22;37694;51.748;14.326;2023-08-06T15:03:54;25.40;55.20
51613;DHT22;37694;51.748;14.326;2023-08-06T15:06:19;25.30;55.10
51613;DHT22;37694;51.748;14.326;2023-08-06T15:08:45;25.30;55.10
51613;DHT22;37694;51.748;14.326;2023-08-06T15:11:13;25.40;55.10
51613;DHT22;37694;51.748;14.326;2023-08-06T15:13:39;25.40;55.00
51613;DHT22;37694;51.748;14.326;2023-08-06T15:16:04;25.40;54.90
51613;DHT22;37694;51.748;14.326;2023-08-06T15:18:30;25.40;55.00
51613;DHT22;37694;51.748;14.326;2023-08-06T15:20:56;25.40;54.90